sensor_id;sensor_type;location;lat;lon;timestamp;pressure;altitude;pressure_sealevel;temperature;humidity
61740;BME280;47645;45.288;12.038;2023-04-08T00:02:56;1015.5964728863441;;;8.9388671875;64.80911487615147
61740;BME280;47645;45.288;12.038;2023-04-08T00:12:57;1015.6045211377037;;;8.480078125;66.57124041005241
61740;BME280;47645;45.288;12.038;2023-04-08T00:22:58;1015.5275073154543;;;8.704296875;65.10952706353754
61740;BME280;47645;45.288;12.038;2023-04-08T00:32:58;1015.5553359881806;;;8.6330078125;65.1340516541632
61740;BME280;47645;45.288;12.038;2023-04-08T00:43:00;1015.6072732722772;;;8.245703125;68.90990059105238
61740;BME280;47645;45.288;12.038;2023-04-08T00:53:00;1015.6372314077607;;;7.91953125;73.76212118881949
61740;BME280;47645;45.288;12.038;2023-04-08T01:03:06;1015.6232072888762;;;8.3935546875;65.94500376869014
61740;BME280;47645;45.288;12.038;2023-04-08T01:13:04;1015.7098632391859;;;8.2814453125;65.69382490560443
61740;BME280;47645;45.288;12.038;2023-04-08T01:23:12;1015.6865658816896;;;7.48125;74.62032854226389
61740;BME280;47645;45.288;12.038;2023-04-08T01:33:04;1015.6053183503553;;;7.603515625;78.38670789203621
61740;BME280;47645;45.288;12.038;2023-04-08T01:43:08;1015.6104936438408;;;7.9501953125;68.46804447374106
61740;BME280;47645;45.288;12.038;2023-04-08T01:53:05;1015.5800613163007;;;7.817578125;70.31091950907476
61740;BME280;47645;45.288;12.038;2023-04-08T02:03:05;1015.6355268688727;;;7.5220703125;84.82102308942675
61740;BME280;47645;45.288;12.038;2023-04-08T02:13:06;1015.5981903019924;;;7.4505859375;91.85150977509434
61740;BME280;47645;45.288;12.038;2023-04-08T02:23:11;1015.5509806934051;;;7.3080078125;95.45836423735068
61740;BME280;47645;45.288;12.038;2023-04-08T02:33:07;1015.5732768073663;;;7.2162109375;94.12112661030379
61740;BME280;47645;45.288;12.038;2023-04-08T02:43:07;1015.5217111663271;;;7.3640625;97.98634704931865
61740;BME280;47645;45.288;12.038;2023-04-08T02:53:08;1015.4894837588545;;;7.49140625;100
61740;BME280;47645;45.288;12.038;2023-04-08T03:03:09;1015.4463979746752;;;7.3333984375;100
61740;BME280;47645;45.288;12.038;2023-04-08T03:13:09;1015.3861393781599;;;7.3384765625;100
61740;BME280;47645;45.288;12.038;2023-04-08T03:23:10;1015.3212097979887;;;7.379296875;100
61740;BME280;47645;45.288;12.038;2023-04-08T03:33:11;1015.2893958824964;;;7.5984375;100
61740;BME280;47645;45.288;12.038;2023-04-08T03:43:12;1015.2277236318092;;;7.7361328125;100
61740;BME280;47645;45.288;12.038;2023-04-08T03:53:12;1015.3382864866658;;;7.91953125;100
61740;BME280;47645;45.288;12.038;2023-04-08T04:03:13;1015.4397974647603;;;7.89921875;100
61740;BME280;47645;45.288;12.038;2023-04-08T04:13:14;1015.531461671291;;;7.8888671875;100
61740;BME280;47645;45.288;12.038;2023-04-08T04:23:14;1015.5577621338307;;;7.787109375;100
61740;BME280;47645;45.288;12.038;2023-04-08T04:33:14;1015.5541973794659;;;8.235546875;100
61740;BME280;47645;45.288;12.038;2023-04-08T04:43:15;1015.7409818021624;;;8.1744140625;100
61740;BME280;47645;45.288;12.038;2023-04-08T04:53:16;1015.7889355184077;;;8.3119140625;100
61740;BME280;47645;45.288;12.038;2023-04-08T05:03:16;1015.735904212301;;;8.5107421875;100
61740;BME280;47645;45.288;12.038;2023-04-08T05:13:17;1015.7283250636548;;;8.7451171875;100
61740;BME280;47645;45.288;12.038;2023-04-08T05:23:18;1015.8071151333589;;;8.4189453125;100
61740;BME280;47645;45.288;12.038;2023-04-08T05:33:18;1015.8278402013515;;;8.3271484375;100
61740;BME280;47645;45.288;12.038;2023-04-08T05:43:19;1015.9335668403622;;;8.44453125;99.82669277727767
61740;BME280;47645;45.288;12.038;2023-04-08T05:53:20;1015.9233954508068;;;8.5107421875;98.96406524198667
61740;BME280;47645;45.288;12.038;2023-04-08T06:03:20;1015.9369121805632;;;8.887890625;96.73042802194259
61740;BME280;47645;45.288;12.038;2023-04-08T06:13:21;1015.9935522545118;;;9.0306640625;94.9959169638723
61740;BME280;47645;45.288;12.038;2023-04-08T06:23:22;1016.0231565706698;;;9.41796875;92.57676132703607
61740;BME280;47645;45.288;12.038;2023-04-08T06:33:22;1016.0924746235457;;;9.346484375;91.92966644349737
61740;BME280;47645;45.288;12.038;2023-04-08T06:43:23;1016.0384481806342;;;9.88671875;89.54447666892729
61740;BME280;47645;45.288;12.038;2023-04-08T06:53:25;1016.1056869046666;;;10.39140625;85.22596369026085
61740;BME280;47645;45.288;12.038;2023-04-08T07:03:24;1016.0693865500898;;;10.6767578125;84.78746562947326
61740;BME280;47645;45.288;12.038;2023-04-08T07:13:25;1016.0990785151972;;;11.1609375;80.05912485794171
61740;BME280;47645;45.288;12.038;2023-04-08T07:23:26;1016.2795809473153;;;11.476953125;75.92210039764882
61740;BME280;47645;45.288;12.038;2023-04-08T07:33:26;1016.3765643462549;;;11.680859375;71.85414423191652
61740;BME280;47645;45.288;12.038;2023-04-08T07:43:27;1016.396528216389;;;12.0681640625;68.51731048831996
61740;BME280;47645;45.288;12.038;2023-04-08T07:53:28;1016.4872541202225;;;12.3994140625;66.82927694326445
61740;BME280;47645;45.288;12.038;2023-04-08T08:03:28;1016.483687430916;;;12.8224609375;63.231329251164205
61740;BME280;47645;45.288;12.038;2023-04-08T08:13:31;1016.550621328423;;;13.296484375;60.65410402252734
61740;BME280;47645;45.288;12.038;2023-04-08T08:23:31;1016.5212429448788;;;13.4595703125;59.99351887001874
61740;BME280;47645;45.288;12.038;2023-04-08T08:33:31;1016.5733874140191;;;13.6837890625;58.66089310669407
61740;BME280;47645;45.288;12.038;2023-04-08T08:43:33;1016.6577070470231;;;13.811328125;55.36300662301537
61740;BME280;47645;45.288;12.038;2023-04-08T08:53:33;1016.6293190535933;;;14.14765625;62.0859895223974
61740;BME280;47645;45.288;12.038;2023-04-08T09:03:34;1016.7023142598673;;;14.1884765625;62.66208434953182
61740;BME280;47645;45.288;12.038;2023-04-08T09:13:36;1016.6815501981177;;;14.677734375;63.927034646456015
61740;BME280;47645;45.288;12.038;2023-04-08T09:23:38;1016.6776927482466;;;15.3404296875;64.8489599461194
61740;BME280;47645;45.288;12.038;2023-04-08T09:33:37;1016.6784245916087;;;15.4474609375;61.8227885000918
61740;BME280;47645;45.288;12.038;2023-04-08T09:43:41;1016.7049856441776;;;16.1251953125;60.263714038260446
61740;BME280;47645;45.288;12.038;2023-04-08T09:53:45;1016.7154919706412;;;16.67578125;57.79916316150056
61740;BME280;47645;45.288;12.038;2023-04-08T10:03:46;1016.6997029127934;;;16.48203125;58.58892173405703
61740;BME280;47645;45.288;12.038;2023-04-08T10:13:41;1016.684389422731;;;16.803125;58.405019096748624
61740;BME280;47645;45.288;12.038;2023-04-08T10:23:58;1016.6997315867394;;;17.5015625;55.81842337375959
61740;BME280;47645;45.288;12.038;2023-04-08T10:33:42;1016.6612181886783;;;18.4291015625;55.18138633169965
61740;BME280;47645;45.288;12.038;2023-04-08T10:43:46;1016.5958931443695;;;19.3720703125;51.80265503323702
61740;BME280;47645;45.288;12.038;2023-04-08T10:53:44;1016.4772418138991;;;20.248828125;50.590685846599534
61740;BME280;47645;45.288;12.038;2023-04-08T11:03:46;1016.5111349057524;;;21.1103515625;48.0018222402608
61740;BME280;47645;45.288;12.038;2023-04-08T11:13:47;1016.5062915836019;;;22.0787109375;44.64756553592056
61740;BME280;47645;45.288;12.038;2023-04-08T11:23:48;1016.4565641537972;;;22.3693359375;44.65044419511448
61740;BME280;47645;45.288;12.038;2023-04-08T11:33:52;1016.3405057810153;;;23.0166015625;43.31259940216705
61740;BME280;47645;45.288;12.038;2023-04-08T11:43:51;1016.2654798215123;;;22.93515625;40.5648553664824
61740;BME280;47645;45.288;12.038;2023-04-08T11:53:51;1016.1835137902958;;;22.6751953125;43.644690880229824
61740;BME280;47645;45.288;12.038;2023-04-08T12:03:55;1016.1311220207214;;;23.0931640625;42.76484928664184
61740;BME280;47645;45.288;12.038;2023-04-08T12:13:54;1016.0175829614949;;;23.551953125;41.70966827265893
61740;BME280;47645;45.288;12.038;2023-04-08T12:23:55;1015.9910613236211;;;23.7455078125;39.80720830177433
61740;BME280;47645;45.288;12.038;2023-04-08T12:33:56;1015.9755168025437;;;23.873046875;41.068447580712665
61740;BME280;47645;45.288;12.038;2023-04-08T12:43:57;1015.9836005869809;;;23.36328125;38.252457397505474
61740;BME280;47645;45.288;12.038;2023-04-08T12:54:00;1015.9837548454333;;;24.3470703125;40.97627429113693
61740;BME280;47645;45.288;12.038;2023-04-08T13:04:00;1015.9904193451641;;;23.9138671875;41.386659804201074
61740;BME280;47645;45.288;12.038;2023-04-08T13:14:02;1016.0350956667778;;;23.658984375;40.57662416369895
61740;BME280;47645;45.288;12.038;2023-04-08T13:24:03;1016.039313719252;;;22.211328125;41.221519773280306
61740;BME280;47645;45.288;12.038;2023-04-08T13:34:04;1016.0170997384985;;;21.5078125;42.859427789056404
61740;BME280;47645;45.288;12.038;2023-04-08T13:44:05;1016.0035860983385;;;22.940234375;42.56201754793923
61740;BME280;47645;45.288;12.038;2023-04-08T13:54:06;1016.1045072057871;;;21.395703125;43.68658999355072
61740;BME280;47645;45.288;12.038;2023-04-08T14:04:07;1015.9532401873273;;;22.3029296875;44.615388420371765
61740;BME280;47645;45.288;12.038;2023-04-08T14:14:09;1015.8834383002229;;;22.960546875;43.13914228771753
61740;BME280;47645;45.288;12.038;2023-04-08T14:24:10;1015.8787799263357;;;23.077734375;41.488883779431404
61740;BME280;47645;45.288;12.038;2023-04-08T14:34:11;1015.9854154511892;;;21.813671875;42.0035934557221
61740;BME280;47645;45.288;12.038;2023-04-08T14:44:12;1016.0106857152874;;;22.54765625;43.21151544151169
61740;BME280;47645;45.288;12.038;2023-04-08T14:54:13;1015.9499612192975;;;22.3947265625;44.950298964768585
61740;BME280;47645;45.288;12.038;2023-04-08T15:04:14;1016.1131057660131;;;21.8646484375;44.77208905336352
61740;BME280;47645;45.288;12.038;2023-04-08T15:14:16;1016.2688607304298;;;19.6830078125;48.65623412336849
61740;BME280;47645;45.288;12.038;2023-04-08T15:24:17;1016.2428114030814;;;20.33046875;47.935794429605856
61740;BME280;47645;45.288;12.038;2023-04-08T15:34:18;1016.2944600366324;;;20.4271484375;49.50695723026967
61740;BME280;47645;45.288;12.038;2023-04-08T15:44:19;1016.382676626423;;;19.5912109375;51.060074126256154
61740;BME280;47645;45.288;12.038;2023-04-08T15:54:20;1016.4980407916099;;;18.9591796875;50.52483393785566
61740;BME280;47645;45.288;12.038;2023-04-08T16:04:22;1016.5483895018308;;;19.3416015625;52.33850231788549
61740;BME280;47645;45.288;12.038;2023-04-08T16:14:22;1016.6804320533436;;;18.663671875;52.84332405054091
61740;BME280;47645;45.288;12.038;2023-04-08T16:24:23;1016.809382163326;;;18.5921875;54.9366557382543
61740;BME280;47645;45.288;12.038;2023-04-08T16:34:24;1016.9658596047727;;;17.8888671875;56.45826789163393
61740;BME280;47645;45.288;12.038;2023-04-08T16:44:25;1016.9618103019787;;;17.7666015625;57.37888045964035
61740;BME280;47645;45.288;12.038;2023-04-08T16:54:26;1016.9282261927084;;;17.5728515625;58.09766939557234
61740;BME280;47645;45.288;12.038;2023-04-08T17:04:27;1016.929251706885;;;17.2720703125;58.929549331634334
61740;BME280;47645;45.288;12.038;2023-04-08T17:14:28;1016.9546358193671;;;17.012109375;59.700064823080375
61740;BME280;47645;45.288;12.038;2023-04-08T17:24:29;1016.9181747649335;;;16.767578125;60.67348488339436
61740;BME280;47645;45.288;12.038;2023-04-08T17:34:32;1016.868531040154;;;16.583984375;60.602568633738365
61740;BME280;47645;45.288;12.038;2023-04-08T17:44:31;1016.8426792181417;;;16.2322265625;61.76707423278151
61740;BME280;47645;45.288;12.038;2023-04-08T17:54:33;1017.0014681273929;;;16.03359375;62.32224164043919
61740;BME280;47645;45.288;12.038;2023-04-08T18:04:33;1017.1841854859135;;;15.9111328125;63.252699032996276
61740;BME280;47645;45.288;12.038;2023-04-08T18:14:35;1017.3920346982651;;;15.6716796875;63.182269998173595
61740;BME280;47645;45.288;12.038;2023-04-08T18:24:35;1017.5650813868555;;;15.5595703125;63.59318706295286
61740;BME280;47645;45.288;12.038;2023-04-08T18:34:35;1017.6845867197252;;;15.4728515625;63.56579571287201
61740;BME280;47645;45.288;12.038;2023-04-08T18:44:36;1017.8518900570506;;;15.1466796875;64.6128596057368
61740;BME280;47645;45.288;12.038;2023-04-08T18:54:37;1017.9847541610367;;;14.26484375;70.35220903221433
61740;BME280;47645;45.288;12.038;2023-04-08T19:04:38;1018.1416853660756;;;14.560546875;68.54298509481418
61740;BME280;47645;45.288;12.038;2023-04-08T19:14:39;1018.2724232388839;;;14.3515625;67.55050084785098
61740;BME280;47645;45.288;12.038;2023-04-08T19:24:41;1018.3731486618168;;;14.12734375;72.42258066782959
61740;BME280;47645;45.288;12.038;2023-04-08T19:34:41;1018.4936008117897;;;13.8572265625;70.47945097859454
61740;BME280;47645;45.288;12.038;2023-04-08T19:44:41;1018.4661590277128;;;13.8927734375;70.88532636223587
61740;BME280;47645;45.288;12.038;2023-04-08T19:54:43;1018.5817377973478;;;13.6888671875;72.13609209199292
61740;BME280;47645;45.288;12.038;2023-04-08T20:04:44;1018.6295298174238;;;13.71953125;73.05776108617229
61740;BME280;47645;45.288;12.038;2023-04-08T20:14:45;1018.6534107657791;;;13.69921875;73.11215181957574
61740;BME280;47645;45.288;12.038;2023-04-08T20:24:45;1018.6608756423162;;;13.286328125;73.51645886680036
61740;BME280;47645;45.288;12.038;2023-04-08T20:34:45;1018.810331254981;;;13.1333984375;78.84590727396842
61740;BME280;47645;45.288;12.038;2023-04-08T20:44:46;1018.9196706923806;;;13.0875;80.92837924190408
61740;BME280;47645;45.288;12.038;2023-04-08T20:54:47;1018.8608295087473;;;12.9345703125;80.59011468554577
61740;BME280;47645;45.288;12.038;2023-04-08T21:04:48;1018.8682456698007;;;12.9345703125;82.30297929832811
61740;BME280;47645;45.288;12.038;2023-04-08T21:14:50;1018.9937352701844;;;12.75625;80.73007517852722
61740;BME280;47645;45.288;12.038;2023-04-08T21:24:49;1019.025354623703;;;12.633984375;76.22253729531907
61740;BME280;47645;45.288;12.038;2023-04-08T21:34:51;1019.0988858934204;;;12.8224609375;74.86414299701615
61740;BME280;47645;45.288;12.038;2023-04-08T21:44:51;1019.1331507755592;;;12.7359375;73.61137547837292
61740;BME280;47645;45.288;12.038;2023-04-08T21:54:52;1019.1415451674405;;;13.0212890625;70.12253799430621
61740;BME280;47645;45.288;12.038;2023-04-08T22:04:53;1019.1671184763037;;;13.4291015625;67.91621825775428
61740;BME280;47645;45.288;12.038;2023-04-08T22:14:53;1019.1698601036942;;;13.413671875;67.60624442713751
61740;BME280;47645;45.288;12.038;2023-04-08T22:24:54;1019.1463424111247;;;12.9294921875;73.71715243464517
61740;BME280;47645;45.288;12.038;2023-04-08T22:34:55;1019.1510072170393;;;12.6083984375;72.29402973386864
61740;BME280;47645;45.288;12.038;2023-04-08T22:44:56;1019.163832413821;;;12.3638671875;72.4984496683001
61740;BME280;47645;45.288;12.038;2023-04-08T22:54:57;1019.1587599139029;;;12.2923828125;70.28737210177896
61740;BME280;47645;45.288;12.038;2023-04-08T23:04:59;1019.2076722078721;;;11.79296875;70.8542580559022
61740;BME280;47645;45.288;12.038;2023-04-08T23:14:59;1019.1977218022416;;;11.925390625;71.43813122888714
61740;BME280;47645;45.288;12.038;2023-04-08T23:24:59;1019.2190807044635;;;11.9712890625;71.20760499942413
61740;BME280;47645;45.288;12.038;2023-04-08T23:35:01;1019.27401212043;;;11.818359375;72.01609798958418
61740;BME280;47645;45.288;12.038;2023-04-08T23:45:01;1019.2493005013266;;;11.98671875;70.92968707573557
61740;BME280;47645;45.288;12.038;2023-04-08T23:55:02;1019.2152888071307;;;11.6859375;71.02400823578284
